createdAt,value
2022-09-24T00:05:15.158Z,43.13
2022-09-24T00:12:02.016Z,43.25
2022-09-24T00:18:50.073Z,43.19
2022-09-24T00:25:48.453Z,43.16
2022-09-24T00:32:33.813Z,43.77
2022-09-24T00:39:21.714Z,43.63
2022-09-24T00:46:17.253Z,43.88
2022-09-24T00:53:07.779Z,43.67
2022-09-24T00:59:56.419Z,43.63
2022-09-24T01:06:41.928Z,43.80
2022-09-24T01:13:52.599Z,43.63
2022-09-24T01:21:38.724Z,43.74
2022-09-24T01:28:39.947Z,44.13
2022-09-24T01:35:32.538Z,44.15
2022-09-24T01:42:22.093Z,44.29
2022-09-24T01:49:07.720Z,44.14
2022-09-24T01:56:05.211Z,44.15
2022-09-24T02:02:58.265Z,43.91
2022-09-24T02:09:46.776Z,44.15
2022-09-24T02:16:43.442Z,44.13
2022-09-24T02:23:31.882Z,43.90
2022-09-24T02:30:17.994Z,44.39
2022-09-24T02:37:10.814Z,44.25
2022-09-24T02:43:56.675Z,44.37
2022-09-24T03:04:33.617Z,44.24
2022-09-24T03:11:19.123Z,44.55
2022-09-24T03:18:04.546Z,44.50
2022-09-24T03:24:53.969Z,44.52
2022-09-24T03:31:39.440Z,44.31
2022-09-24T03:38:24.816Z,44.61
2022-09-24T03:45:14.307Z,44.72
2022-09-24T03:51:59.654Z,44.71
2022-09-24T03:58:48.064Z,45.09
2022-09-24T04:05:36.788Z,45.06
2022-09-24T04:12:23.064Z,45.36
2022-09-24T04:19:08.432Z,45.27
2022-09-24T04:25:56.998Z,45.15
2022-09-24T04:32:42.442Z,45.28
2022-09-24T04:39:27.945Z,45.02
2022-09-24T04:46:18.254Z,45.41
2022-09-24T04:53:05.092Z,45.35
2022-09-24T04:59:50.260Z,44.98
2022-09-24T05:06:38.225Z,45.49
2022-09-24T05:13:23.737Z,45.49
2022-09-24T05:20:11.305Z,45.65
2022-09-24T05:27:14.433Z,45.73
2022-09-24T05:33:59.972Z,45.71
2022-09-24T05:40:52.298Z,45.91
2022-09-24T05:47:40.306Z,46.33
2022-09-24T05:54:25.978Z,45.90
2022-09-24T06:01:11.449Z,46.16
2022-09-24T06:07:59.419Z,46.54
2022-09-24T06:14:45.229Z,46.68
2022-09-24T06:21:30.650Z,46.67
2022-09-24T06:28:18.605Z,46.56
2022-09-24T06:35:04.032Z,46.94
2022-09-24T06:41:50.789Z,46.81
2022-09-24T06:48:39.731Z,45.86
2022-09-24T06:55:25.474Z,46.98
2022-09-24T07:02:12.762Z,47.29
2022-09-24T07:09:01.905Z,47.68
2022-09-24T07:15:48.575Z,47.89
2022-09-24T07:22:33.907Z,46.95
2022-09-24T07:29:22.129Z,48.03
2022-09-24T07:36:08.992Z,48.34
2022-09-24T07:42:55.241Z,48.56
2022-09-24T07:49:43.260Z,48.57
2022-09-24T07:56:28.993Z,48.87
2022-09-24T08:03:15.031Z,48.98
2022-09-24T08:10:03.503Z,49.45
2022-09-24T08:16:48.830Z,49.07
2022-09-24T08:23:36.396Z,49.33
2022-09-24T08:30:24.776Z,49.42
2022-09-24T08:37:10.356Z,48.89
2022-09-24T08:44:05.386Z,49.37
2022-09-24T08:51:00.872Z,49.25
2022-09-24T08:58:01.047Z,49.34
2022-09-24T09:05:03.248Z,49.31
2022-09-24T09:11:55.965Z,49.15
2022-09-24T09:18:46.068Z,49.09
2022-09-24T09:25:38.474Z,49.22
2022-09-24T09:32:43.051Z,48.73
2022-09-24T09:39:42.835Z,48.65
2022-09-24T09:46:36.183Z,48.85
2022-09-24T09:53:26.746Z,48.29
2022-09-24T10:00:29.429Z,48.14
2022-09-24T10:07:17.941Z,47.38
2022-09-24T10:14:15.082Z,47.72
2022-09-24T10:21:02.654Z,47.65
2022-09-24T10:27:48.230Z,47.40
2022-09-24T10:34:36.809Z,46.87
2022-09-24T10:41:30.941Z,46.40
2022-09-24T10:48:24.153Z,46.14
2022-09-24T10:55:32.312Z,45.90
2022-09-24T11:03:00.333Z,45.80
2022-09-24T11:09:54.677Z,45.49
2022-09-24T11:17:16.662Z,45.43
2022-09-24T11:24:30.195Z,45.21
2022-09-24T11:31:28.574Z,44.91
2022-09-24T11:38:22.771Z,44.53
2022-09-24T11:45:44.343Z,44.61
2022-09-24T11:52:37.926Z,44.06
2022-09-24T11:59:39.237Z,43.95
2022-09-24T12:06:33.689Z,44.20
2022-09-24T12:13:23.026Z,44.39
2022-09-24T12:20:21.233Z,44.03
2022-09-24T12:27:15.120Z,44.00
2022-09-24T12:34:08.411Z,44.29
2022-09-24T12:41:24.414Z,45.16
2022-09-24T12:48:16.131Z,45.22
2022-09-24T12:55:04.949Z,45.02
2022-09-24T13:01:53.063Z,45.45
2022-09-24T13:08:43.931Z,45.58
2022-09-24T13:15:42.727Z,44.81
2022-09-24T13:22:34.817Z,45.19
2022-09-24T13:29:29.440Z,45.32
2022-09-24T13:36:20.137Z,44.98
2022-09-24T13:43:17.518Z,44.68
2022-09-24T13:50:15.236Z,45.28
2022-09-24T13:57:05.650Z,45.49
2022-09-24T14:04:02.881Z,45.50
2022-09-24T14:10:51.027Z,45.66
2022-09-24T14:17:36.439Z,45.85
2022-09-24T14:24:28.329Z,46.17
2022-09-24T14:31:13.827Z,46.69
2022-09-24T14:38:08.783Z,46.25
2022-09-24T14:44:57.974Z,46.51
2022-09-24T14:51:43.351Z,46.25
2022-09-24T14:58:39.036Z,46.24
2022-09-24T15:05:31.292Z,46.72
2022-09-24T15:12:26.632Z,46.86
2022-09-24T15:19:22.289Z,47.12
2022-09-24T15:26:10.406Z,47.31
2022-09-24T15:32:56.017Z,47.46
2022-09-24T15:39:48.469Z,47.30
2022-09-24T15:46:38.315Z,47.48
2022-09-24T15:53:27.536Z,47.78
2022-09-24T16:00:18.377Z,47.87
2022-09-24T16:07:06.407Z,48.03
2022-09-24T16:13:53.554Z,47.72
2022-09-24T16:20:43.525Z,47.99
2022-09-24T16:27:31.629Z,47.77
2022-09-24T16:34:17.141Z,47.47
2022-09-24T16:41:03.270Z,47.52
2022-09-24T16:47:51.006Z,46.56
2022-09-24T16:54:36.814Z,46.95
2022-09-24T17:01:24.879Z,46.69
2022-09-24T17:08:13.121Z,47.18
2022-09-24T17:15:02.155Z,47.06
2022-09-24T17:21:50.273Z,46.50
2022-09-24T17:28:40.026Z,46.84
2022-09-24T17:35:25.389Z,46.61
2022-09-24T17:42:10.864Z,46.46
2022-09-24T17:49:02.724Z,46.69
2022-09-24T17:55:52.132Z,46.10
2022-09-24T18:02:37.556Z,46.12
2022-09-24T18:09:25.524Z,46.75
2022-09-24T18:16:14.095Z,47.03
2022-09-24T18:22:59.540Z,47.60
2022-09-24T18:29:47.541Z,47.29
2022-09-24T18:36:33.133Z,46.34
2022-09-24T18:43:18.501Z,45.98
2022-09-24T18:50:06.813Z,45.64
2022-09-24T18:56:52.419Z,46.09
2022-09-24T19:03:39.748Z,45.98
2022-09-24T19:10:27.730Z,46.38
2022-09-24T19:17:13.129Z,45.89
2022-09-24T19:24:01.040Z,45.88
2022-09-24T19:30:52.751Z,46.35
2022-09-24T19:37:38.506Z,45.70
2022-09-24T19:44:24.184Z,45.92
2022-09-24T19:51:16.387Z,46.13
2022-09-24T19:58:02.388Z,45.90
2022-09-24T20:04:47.988Z,46.14
2022-09-24T20:11:36.539Z,46.00
2022-09-24T20:18:21.951Z,45.81
2022-09-24T20:25:08.763Z,45.63
2022-09-24T20:31:58.056Z,45.67
2022-09-24T20:38:43.944Z,45.75
2022-09-24T20:45:29.435Z,46.25
2022-09-24T20:52:17.481Z,46.83
2022-09-24T20:59:03.669Z,47.48
2022-09-24T21:05:49.015Z,47.55
2022-09-24T21:12:37.043Z,47.85
2022-09-24T21:19:22.552Z,47.99
2022-09-24T21:26:16.800Z,48.07
2022-09-24T21:33:04.802Z,48.71
2022-09-24T21:39:50.173Z,48.79
2022-09-24T21:46:37.454Z,48.83
2022-09-24T21:53:25.553Z,48.64
2022-09-24T22:00:13.701Z,48.97
2022-09-24T22:06:59.103Z,48.72
2022-09-24T22:13:47.955Z,49.17
2022-09-24T22:20:33.922Z,49.16
2022-09-24T22:27:19.489Z,49.27
2022-09-24T22:34:20.184Z,49.29
2022-09-24T22:41:08.177Z,49.55
2022-09-24T22:47:55.285Z,49.69
2022-09-24T22:54:43.249Z,49.62
2022-09-24T23:01:31.767Z,50.15
2022-09-24T23:08:17.339Z,49.56
2022-09-24T23:15:05.579Z,50.09
2022-09-24T23:21:51.003Z,49.59
2022-09-24T23:28:37.955Z,49.98
2022-09-24T23:35:25.941Z,49.82
2022-09-24T23:42:11.833Z,49.78
2022-09-24T23:48:57.352Z,50.07
2022-09-24T23:55:49.501Z,49.93
